Hilo Intl Information

FAA: ITO - ICAO: PHTO

Hilo Intl (Airport) Location

State Hawaii
County Hawaii
City Hilo
Hilo Intl (Airport) is 2 miles east of Hilo, HI.
Latitude 19-43-12.9468N
Longitude 155-02-54.4925W
Elevation 37ft

Hilo Intl METARs

METAR PHTO 200453Z 02005KT 10SM FEW035 24/18 A3005 RMK AO2 SLP174 T02390178
Altimeter 30.05"
Temperature 23.9°C (75.0°F)
Wind 20° at 5KT
Clouds few at 3,500ft
Visibility 10.0mi
Time observed: 2021-10-20T04:53:00Z

Hilo Intl (Airport) Details

Status Operational
Activation April 1938
Ownership Public
Usage Public
Chart HAWAIIAN ISLANDS
ATC on-site Yes
Beacon schedule sunset-sunrise
Beacon color clear green

Hilo Intl (Airport) Contacts

Owner STATE OF HAWAII ARPT DIV DOT
Owner address HONOLULU INTL ARPT, HONOLULU, HI 96819
Owner phone 808-838-8600
Manager BEN MAGNUSON
Manager address N/A, MCGRATH, AK 99627
Manager phone 907-524-3640

Hilo Intl Radio Frequencies

Hilo Intl (Airport) Radio Frequencies

UNICOM N/A
Common traffic advisory frequency (CTAF) 118.1